Time;durP1;ratioP1;P1;durP2;ratioP2;P2;SDS_P1;SDS_P2;PMS_P1;PMS_P2;Temp;Humidity;BMP_temperature;BMP_pressure;BME280_temperature;BME280_humidity;BME280_pressure;Samples;Min_cycle;Max_cycle;Signal;HPM_P1;HPM_P2
2022/04/08 00:00:58;;;;;;;9.10;1.27;;;5.30;99.90;;;;;;5064093;28;20048;-71
2022/04/08 00:03:24;;;;;;;4.03;0.52;;;5.20;99.90;;;;;;5051182;28;20044;-71
2022/04/08 00:05:52;;;;;;;8.80;1.00;;;5.20;99.90;;;;;;5069428;28;20048;-71
2022/04/08 00:08:19;;;;;;;3.53;0.70;;;5.10;99.90;;;;;;5070160;28;20123;-71
2022/04/08 00:10:44;;;;;;;5.70;0.90;;;5.10;99.90;;;;;;5069266;28;20052;-71
2022/04/08 00:13:11;;;;;;;7.78;0.85;;;5.10;99.90;;;;;;5049548;28;20040;-71
2022/04/08 00:15:38;;;;;;;9.90;1.25;;;5.10;99.90;;;;;;5071164;28;20055;-71
2022/04/08 00:18:04;;;;;;;4.97;0.80;;;5.00;99.90;;;;;;5068754;28;20048;-70
2022/04/08 00:20:31;;;;;;;6.47;0.80;;;5.00;99.90;;;;;;5068400;28;20071;-70
2022/04/08 00:22:56;;;;;;;2.53;0.52;;;5.00;99.90;;;;;;5068161;28;20434;-70
2022/04/08 00:25:22;;;;;;;4.07;0.70;;;5.00;99.90;;;;;;5066633;28;20146;-70
2022/04/08 00:27:48;;;;;;;8.23;0.90;;;4.90;99.90;;;;;;5068281;28;20201;-70
2022/04/08 00:30:13;;;;;;;4.40;0.98;;;4.80;99.90;;;;;;5067912;28;20048;-70
2022/04/08 00:32:39;;;;;;;5.82;0.80;;;4.70;99.90;;;;;;5066027;28;20378;-70
2022/04/08 00:35:05;;;;;;;7.43;0.90;;;4.70;99.90;;;;;;5052740;28;20056;-70
2022/04/08 00:37:31;;;;;;;8.55;1.48;;;4.60;99.90;;;;;;5067616;28;20313;-70
2022/04/08 00:39:57;;;;;;;5.13;1.13;;;4.60;99.90;;;;;;5036353;28;20378;-70
2022/04/08 00:42:22;;;;;;;6.45;1.00;;;4.50;99.90;;;;;;5065925;28;20045;-70
2022/04/08 00:44:48;;;;;;;10.00;1.30;;;4.50;99.90;;;;;;5047441;28;20132;-70
2022/04/08 00:47:15;;;;;;;7.75;1.10;;;4.40;99.90;;;;;;5068075;28;20041;-70
2022/04/08 00:49:41;;;;;;;10.70;1.27;;;4.40;99.90;;;;;;5068102;28;20051;-70
2022/04/08 00:52:07;;;;;;;9.57;1.30;;;4.40;99.90;;;;;;5067904;28;20036;-70
2022/04/08 00:54:33;;;;;;;9.88;1.50;;;4.40;99.90;;;;;;5069200;28;20045;-70
2022/04/08 00:56:59;;;;;;;8.10;1.15;;;4.40;99.90;;;;;;5085990;28;20106;-71
2022/04/08 00:59:26;;;;;;;7.28;1.25;;;4.40;99.90;;;;;;5070195;28;20119;-71
2022/04/08 01:01:52;;;;;;;11.20;1.63;;;4.40;99.90;;;;;;5068446;28;20106;-70
2022/04/08 01:04:21;;;;;;;7.97;1.70;;;4.30;99.90;;;;;;5064746;28;20040;-71
2022/04/08 01:06:47;;;;;;;9.95;1.52;;;4.30;99.90;;;;;;5041553;28;20413;-71
2022/04/08 01:09:13;;;;;;;13.23;1.52;;;4.20;99.90;;;;;;5067079;28;20052;-70
2022/04/08 01:11:39;;;;;;;9.23;1.35;;;4.20;99.90;;;;;;5064540;28;20047;-70
2022/04/08 01:14:13;;;;;;;11.98;1.38;;;4.10;99.90;;;;;;5049780;28;20041;-71
2022/04/08 01:16:39;;;;;;;14.43;1.40;;;4.10;99.90;;;;;;5061986;28;20289;-70
2022/04/08 01:19:05;;;;;;;10.18;1.08;;;4.00;99.90;;;;;;5065929;28;20044;-71
2022/04/08 01:21:31;;;;;;;10.77;1.52;;;4.10;99.90;;;;;;5061674;28;20051;-71
2022/04/08 01:23:59;;;;;;;8.57;1.15;;;4.00;99.90;;;;;;5031544;28;20421;-70
2022/04/08 01:26:25;;;;;;;14.40;1.85;;;4.00;99.90;;;;;;5048093;28;20041;-71
2022/04/08 01:28:53;;;;;;;6.07;1.35;;;4.00;99.90;;;;;;5060232;28;20368;-70
2022/04/08 01:31:19;;;;;;;7.18;1.15;;;4.00;99.90;;;;;;5035238;28;20055;-70
2022/04/08 01:33:45;;;;;;;9.25;1.17;;;4.00;99.90;;;;;;5049486;28;20041;-71
2022/04/08 01:36:11;;;;;;;9.93;1.52;;;4.00;99.90;;;;;;5048018;28;20080;-70
2022/04/08 01:38:36;;;;;;;12.05;1.15;;;4.00;99.90;;;;;;5050127;28;20397;-70
2022/04/08 01:41:02;;;;;;;15.15;1.42;;;4.00;99.90;;;;;;5068473;28;20045;-70
2022/04/08 01:43:28;;;;;;;10.55;1.42;;;4.00;99.90;;;;;;5067108;28;20572;-70
2022/04/08 01:45:54;;;;;;;12.70;1.38;;;4.00;99.90;;;;;;5056406;28;20166;-71
2022/04/08 01:48:20;;;;;;;13.57;1.40;;;4.00;99.90;;;;;;5066130;28;20125;-70
2022/04/08 01:50:45;;;;;;;12.52;2.08;;;4.00;99.90;;;;;;5060255;28;20489;-71
2022/04/08 01:53:13;;;;;;;10.20;1.38;;;4.00;99.90;;;;;;5063470;28;20040;-70
2022/04/08 01:55:39;;;;;;;14.63;1.38;;;4.00;99.90;;;;;;5065346;28;20056;-71
2022/04/08 01:58:06;;;;;;;17.05;1.90;;;4.00;99.90;;;;;;5064300;28;20053;-70
2022/04/08 02:00:32;;;;;;;13.40;1.45;;;4.00;99.90;;;;;;5067084;28;20048;-70
2022/04/08 02:02:58;;;;;;;18.25;1.63;;;4.00;99.90;;;;;;5047284;28;20052;-70
2022/04/08 02:05:24;;;;;;;10.35;2.20;;;4.00;99.90;;;;;;5065716;28;20053;-70
2022/04/08 02:07:50;;;;;;;10.02;1.35;;;4.00;99.90;;;;;;5066940;28;20424;-70
2022/04/08 02:10:15;;;;;;;8.02;1.30;;;3.90;99.90;;;;;;5064483;28;20028;-70
2022/04/08 02:12:42;;;;;;;13.75;1.15;;;3.90;99.90;;;;;;5066549;28;20056;-70
2022/04/08 02:15:08;;;;;;;12.95;1.88;;;3.90;99.90;;;;;;5067814;28;20055;-70
2022/04/08 02:17:34;;;;;;;15.70;2.33;;;3.90;99.90;;;;;;5067882;28;20048;-70
2022/04/08 02:20:00;;;;;;;12.30;1.45;;;4.00;99.90;;;;;;5050062;28;20554;-70
2022/04/08 02:22:29;;;;;;;13.93;1.50;;;4.00;99.90;;;;;;5064761;28;20035;-70
2022/04/08 02:24:56;;;;;;;12.55;1.92;;;3.90;99.90;;;;;;5063414;28;20055;-70
2022/04/08 02:27:26;;;;;;;11.35;1.15;;;3.80;99.90;;;;;;5063319;28;20044;-70
2022/04/08 02:29:52;;;;;;;7.28;1.33;;;3.80;99.90;;;;;;5063921;28;20590;-71
2022/04/08 02:32:18;;;;;;;8.75;1.85;;;3.70;99.90;;;;;;5065741;28;20432;-70
2022/04/08 02:34:44;;;;;;;12.43;1.70;;;3.70;99.90;;;;;;5066458;28;20044;-70
2022/04/08 02:37:10;;;;;;;9.32;1.40;;;3.60;99.90;;;;;;5066089;28;20044;-71
2022/04/08 02:39:35;;;;;;;15.63;1.85;;;3.60;99.90;;;;;;5048590;28;20036;-70
2022/04/08 02:42:01;;;;;;;9.90;1.88;;;3.60;99.90;;;;;;5067950;28;20055;-70
2022/04/08 02:44:30;;;;;;;12.75;1.15;;;3.50;99.90;;;;;;5066078;28;20040;-69
2022/04/08 02:46:57;;;;;;;12.07;1.42;;;3.70;99.90;;;;;;5066230;28;20119;-70
2022/04/08 02:49:22;;;;;;;11.25;1.10;;;3.50;99.90;;;;;;5064363;28;20429;-70
2022/04/08 02:51:48;;;;;;;15.85;1.60;;;3.50;99.90;;;;;;5052863;28;20119;-70
2022/04/08 02:54:15;;;;;;;8.05;1.38;;;3.60;99.90;;;;;;5065107;28;20056;-70
2022/04/08 02:56:41;;;;;;;13.48;1.52;;;3.60;99.90;;;;;;5064928;28;20076;-70
2022/04/08 02:59:07;;;;;;;17.55;1.50;;;3.50;99.90;;;;;;5061744;28;20049;-70
2022/04/08 03:01:33;;;;;;;16.23;1.67;;;3.50;99.90;;;;;;5063756;28;20071;-70
2022/04/08 03:03:59;;;;;;;12.40;1.60;;;3.50;99.90;;;;;;5065825;28;20124;-70
2022/04/08 03:06:26;;;;;;;13.88;2.00;;;3.50;99.90;;;;;;5065656;28;20045;-70
2022/04/08 03:08:52;;;;;;;11.48;1.83;;;3.50;99.90;;;;;;5060168;28;20068;-71
2022/04/08 03:11:17;;;;;;;13.10;1.90;;;3.50;99.90;;;;;;5058503;28;20052;-70
2022/04/08 03:13:43;;;;;;;10.43;1.50;;;3.50;99.90;;;;;;5065633;28;20048;-70
2022/04/08 03:16:09;;;;;;;12.23;1.92;;;3.40;99.90;;;;;;5035634;28;20149;-70
2022/04/08 03:18:35;;;;;;;12.57;2.08;;;3.40;99.90;;;;;;5064698;28;20440;-70
2022/04/08 03:21:00;;;;;;;14.95;2.03;;;3.40;99.90;;;;;;5051932;28;20433;-70
2022/04/08 03:23:26;;;;;;;10.98;1.80;;;3.40;99.90;;;;;;5058378;28;20060;-70
2022/04/08 03:25:52;;;;;;;9.90;1.77;;;3.50;99.90;;;;;;5061363;28;20051;-70
2022/04/08 03:28:17;;;;;;;6.65;1.25;;;3.50;99.90;;;;;;5048514;28;20037;-69
2022/04/08 03:30:43;;;;;;;7.55;1.15;;;3.50;99.90;;;;;;5062983;28;20575;-70
2022/04/08 03:33:09;;;;;;;6.45;1.48;;;3.60;99.90;;;;;;5063501;28;20394;-70
2022/04/08 03:35:35;;;;;;;9.85;1.30;;;3.60;99.90;;;;;;5065467;28;20343;-70
2022/04/08 03:38:00;;;;;;;16.30;2.13;;;3.60;99.90;;;;;;5069519;28;20040;-70
2022/04/08 03:40:26;;;;;;;12.63;1.70;;;3.60;99.90;;;;;;5064702;28;20036;-69
2022/04/08 03:42:52;;;;;;;11.95;1.80;;;3.60;99.90;;;;;;5069142;28;20052;-70
2022/04/08 03:45:17;;;;;;;10.27;1.80;;;3.60;99.90;;;;;;5069227;28;20109;-69
2022/04/08 03:47:43;;;;;;;12.00;1.48;;;3.60;99.90;;;;;;5067868;28;20044;-70
2022/04/08 03:50:09;;;;;;;6.25;1.15;;;3.90;99.90;;;;;;5051585;28;20055;-70
2022/04/08 03:52:35;;;;;;;7.55;0.90;;;3.70;99.90;;;;;;5065806;28;20128;-70
2022/04/08 03:55:01;;;;;;;3.45;0.88;;;3.80;99.90;;;;;;5069071;28;20131;-70
2022/04/08 03:57:27;;;;;;;4.68;0.90;;;3.80;99.90;;;;;;5068548;28;20036;-70
2022/04/08 03:59:53;;;;;;;12.30;1.45;;;3.70;99.90;;;;;;5069187;28;20040;-70
2022/04/08 04:02:20;;;;;;;4.00;0.90;;;3.70;99.90;;;;;;5066670;28;20309;-70
2022/04/08 04:04:45;;;;;;;7.75;1.00;;;3.60;99.90;;;;;;5069156;28;20046;-70
2022/04/08 04:07:11;;;;;;;5.68;0.95;;;3.60;99.90;;;;;;5069336;28;20037;-69
2022/04/08 04:09:37;;;;;;;7.95;1.27;;;3.60;99.90;;;;;;5068857;28;20082;-70
2022/04/08 04:12:03;;;;;;;6.95;1.20;;;3.50;99.90;;;;;;5067628;28;20052;-69
2022/04/08 04:14:29;;;;;;;3.97;0.90;;;3.50;99.90;;;;;;5068394;28;20114;-70
2022/04/08 04:16:55;;;;;;;5.35;0.80;;;3.80;99.90;;;;;;5060155;28;20491;-69
2022/04/08 04:19:21;;;;;;;5.72;1.33;;;3.40;99.90;;;;;;5067036;28;20520;-70
2022/04/08 04:21:50;;;;;;;6.90;1.10;;;3.40;99.90;;;;;;5049539;28;20033;-70
2022/04/08 04:24:16;;;;;;;3.72;0.80;;;3.40;99.90;;;;;;5069217;28;20056;-70
2022/04/08 04:26:41;;;;;;;5.97;1.88;;;3.30;99.90;;;;;;5058396;28;20167;-69
2022/04/08 04:29:07;;;;;;;4.90;0.80;;;3.30;99.90;;;;;;5060211;28;20056;-69
2022/04/08 04:31:33;;;;;;;2.70;0.93;;;3.20;99.90;;;;;;5066818;28;20061;-69
2022/04/08 04:33:58;;;;;;;3.50;1.00;;;3.20;99.90;;;;;;5069903;28;20259;-70
2022/04/08 04:36:24;;;;;;;3.20;0.77;;;3.20;99.90;;;;;;5045470;28;20036;-70
2022/04/08 04:38:50;;;;;;;6.70;0.90;;;3.20;99.90;;;;;;5071190;28;20072;-70
2022/04/08 04:41:17;;;;;;;3.60;1.00;;;3.20;99.90;;;;;;5068770;28;20390;-70
2022/04/08 04:43:43;;;;;;;4.78;0.90;;;3.40;99.90;;;;;;5062141;28;20132;-70
2022/04/08 04:46:09;;;;;;;9.90;1.08;;;3.50;99.90;;;;;;5069211;28;20155;-70
2022/04/08 04:48:35;;;;;;;6.03;0.90;;;3.50;99.90;;;;;;5070217;28;20493;-70
2022/04/08 04:51:00;;;;;;;4.72;0.80;;;3.50;99.90;;;;;;5064756;28;20074;-69
2022/04/08 04:53:26;;;;;;;2.85;0.75;;;3.50;99.90;;;;;;5067314;28;20087;-70
2022/04/08 04:55:54;;;;;;;4.80;0.82;;;3.50;99.90;;;;;;5064428;28;20519;-71
2022/04/08 04:58:21;;;;;;;5.15;1.02;;;3.50;99.90;;;;;;5069282;28;20058;-70
2022/04/08 05:00:46;;;;;;;6.47;0.98;;;3.50;99.90;;;;;;5082248;28;20070;-70
2022/04/08 05:03:13;;;;;;;3.47;1.10;;;3.50;99.90;;;;;;5066897;28;20106;-70
2022/04/08 05:05:39;;;;;;;3.38;0.75;;;3.50;99.90;;;;;;5067182;28;20045;-70
2022/04/08 05:08:07;;;;;;;6.18;1.25;;;3.50;99.90;;;;;;5065789;28;20032;-70
2022/04/08 05:10:33;;;;;;;2.83;0.80;;;3.50;99.90;;;;;;5059335;28;20067;-70
2022/04/08 05:13:01;;;;;;;3.65;1.08;;;3.50;99.90;;;;;;5061772;28;20207;-69
2022/04/08 05:15:28;;;;;;;3.78;1.05;;;3.40;99.90;;;;;;5051462;28;20123;-69
2022/04/08 05:17:55;;;;;;;6.53;1.13;;;3.50;99.90;;;;;;5057483;28;20127;-69
2022/04/08 05:20:21;;;;;;;3.22;1.00;;;3.40;99.90;;;;;;5059132;28;20052;-70
2022/04/08 05:22:46;;;;;;;7.75;1.10;;;3.50;99.90;;;;;;5051133;28;20114;-70
2022/04/08 05:25:13;;;;;;;3.85;1.10;;;3.70;99.90;;;;;;5047095;28;20578;-70
2022/04/08 05:27:41;;;;;;;5.25;0.95;;;3.50;99.90;;;;;;5045688;28;20036;-69
2022/04/08 05:30:09;;;;;;;5.25;1.00;;;3.50;99.90;;;;;;5042677;28;20098;-69
2022/04/08 05:32:34;;;;;;;5.07;1.13;;;3.50;99.90;;;;;;5062774;28;20531;-69
2022/04/08 05:35:00;;;;;;;4.03;1.05;;;3.60;99.90;;;;;;5059866;28;20041;-70
2022/04/08 05:37:28;;;;;;;9.35;1.38;;;3.60;99.90;;;;;;5052442;28;20045;-70
2022/04/08 05:39:54;;;;;;;10.70;1.45;;;3.60;99.90;;;;;;5051285;28;20052;-70
2022/04/08 05:42:20;;;;;;;2.15;0.98;;;3.80;99.90;;;;;;5065559;28;20464;-70
2022/04/08 05:44:46;;;;;;;6.65;1.23;;;3.80;99.90;;;;;;5048334;28;20522;-69
2022/04/08 05:47:12;;;;;;;5.38;1.00;;;3.90;99.90;;;;;;5054699;28;20044;-71
2022/04/08 05:49:37;;;;;;;6.18;1.20;;;3.90;99.90;;;;;;5052656;28;20050;-70
2022/04/08 05:52:04;;;;;;;5.13;1.15;;;4.00;99.90;;;;;;5050855;28;20045;-70
2022/04/08 05:54:30;;;;;;;5.82;1.13;;;4.00;99.90;;;;;;5047167;28;20544;-70
2022/04/08 05:57:00;;;;;;;3.35;1.05;;;3.90;99.90;;;;;;5050826;28;20295;-69
2022/04/08 05:59:27;;;;;;;5.38;1.20;;;4.10;99.90;;;;;;5048863;28;20358;-70
2022/04/08 06:01:53;;;;;;;5.22;1.30;;;4.70;99.90;;;;;;5050199;28;20045;-69
2022/04/08 06:04:19;;;;;;;3.67;1.00;;;5.30;99.90;;;;;;5049942;28;20493;-69
2022/04/08 06:06:44;;;;;;;6.85;1.73;;;5.70;99.90;;;;;;5063198;28;20098;-70
2022/04/08 06:09:10;;;;;;;9.55;1.10;;;5.90;99.90;;;;;;5040663;28;20044;-70
2022/04/08 06:11:37;;;;;;;7.53;1.30;;;5.70;99.90;;;;;;5047300;28;20058;-70
2022/04/08 06:14:03;;;;;;;6.25;1.40;;;6.00;99.90;;;;;;5057973;28;20139;-69
2022/04/08 06:16:29;;;;;;;9.75;1.38;;;6.70;99.90;;;;;;5060687;28;20302;-69
2022/04/08 06:18:55;;;;;;;4.35;1.00;;;6.80;99.90;;;;;;5058638;28;20037;-69
2022/04/08 06:21:22;;;;;;;5.75;1.20;;;7.60;99.90;;;;;;5062722;28;20044;-70
2022/04/08 06:23:48;;;;;;;6.82;1.38;;;8.80;99.90;;;;;;5056312;28;20063;-69
2022/04/08 06:26:15;;;;;;;8.43;1.23;;;9.50;99.90;;;;;;5060493;28;20671;-69
2022/04/08 06:28:41;;;;;;;7.68;1.20;;;10.20;99.90;;;;;;5057616;28;20056;-70
2022/04/08 06:31:07;;;;;;;7.60;1.20;;;10.90;99.90;;;;;;5058184;28;20040;-70
2022/04/08 06:33:32;;;;;;;8.05;1.25;;;10.50;99.90;;;;;;5037087;28;20109;-70
2022/04/08 06:36:00;;;;;;;7.63;1.25;;;10.60;99.90;;;;;;5040100;28;20125;-70
2022/04/08 06:38:25;;;;;;;7.25;1.17;;;10.60;99.90;;;;;;5062040;28;20729;-70
2022/04/08 06:40:51;;;;;;;8.40;1.13;;;10.10;99.90;;;;;;5061577;28;20072;-70
2022/04/08 06:43:17;;;;;;;4.65;1.10;;;10.50;99.90;;;;;;5058926;28;20075;-70
2022/04/08 06:45:42;;;;;;;6.10;1.23;;;10.90;99.90;;;;;;5042058;28;20036;-70
2022/04/08 06:48:12;;;;;;;8.45;1.40;;;11.20;99.90;;;;;;5046115;28;20048;-69
2022/04/08 06:50:39;;;;;;;5.53;1.00;;;11.00;99.90;;;;;;5052338;28;20121;-69
2022/04/08 06:53:05;;;;;;;11.10;1.63;;;11.20;99.90;;;;;;5049091;28;20452;-70
2022/04/08 06:55:31;;;;;;;6.95;1.23;;;11.50;99.90;;;;;;5058036;28;20053;-70
2022/04/08 06:57:58;;;;;;;7.78;1.58;;;11.60;99.90;;;;;;5061340;28;20408;-70
2022/04/08 07:00:24;;;;;;;6.20;1.27;;;12.10;99.90;;;;;;5058536;28;20127;-70
2022/04/08 07:02:50;;;;;;;8.07;1.27;;;12.30;99.90;;;;;;5055749;28;20135;-70
2022/04/08 07:05:16;;;;;;;8.63;1.40;;;12.40;99.90;;;;;;5059728;28;20115;-70
2022/04/08 07:07:45;;;;;;;5.10;1.30;;;12.10;99.90;;;;;;5063082;28;20037;-70
2022/04/08 07:10:11;;;;;;;7.15;1.10;;;12.00;99.90;;;;;;5063235;28;20036;-70
2022/04/08 07:12:37;;;;;;;10.57;1.63;;;11.70;99.90;;;;;;5060685;28;20716;-70
2022/04/08 07:15:03;;;;;;;9.27;1.40;;;11.20;99.90;;;;;;5060690;28;20056;-71
2022/04/08 07:17:31;;;;;;;8.00;1.20;;;10.50;99.90;;;;;;5062294;28;20501;-70
2022/04/08 07:19:57;;;;;;;6.40;1.38;;;10.10;99.90;;;;;;5058659;28;20094;-70
2022/04/08 07:22:23;;;;;;;4.80;1.15;;;9.90;99.90;;;;;;5065350;28;20044;-70
2022/04/08 07:24:50;;;;;;;8.40;1.60;;;9.70;99.90;;;;;;5062156;28;20036;-70
2022/04/08 07:27:17;;;;;;;9.88;1.42;;;9.40;99.90;;;;;;5031814;28;20420;-70
2022/04/08 07:29:43;;;;;;;7.88;1.67;;;9.10;99.90;;;;;;5050760;28;20040;-70
2022/04/08 07:32:12;;;;;;;7.43;1.27;;;8.80;99.90;;;;;;5056629;28;20076;-71
2022/04/08 07:34:38;;;;;;;7.15;1.80;;;8.50;99.90;;;;;;5060002;28;20071;-69
2022/04/08 07:37:04;;;;;;;6.88;1.10;;;8.20;99.90;;;;;;5056312;28;20530;-70
2022/04/08 07:39:30;;;;;;;7.13;1.75;;;8.20;99.90;;;;;;5057215;28;20506;-69
2022/04/08 07:41:56;;;;;;;7.57;1.33;;;7.90;99.90;;;;;;5055015;28;20044;-70
2022/04/08 07:44:22;;;;;;;8.75;1.63;;;7.90;99.90;;;;;;5072139;28;20052;-70
2022/04/08 07:46:48;;;;;;;9.70;1.45;;;7.90;99.90;;;;;;5093792;28;20046;-70
2022/04/08 07:49:13;;;;;;;8.13;1.13;;;7.90;99.90;;;;;;5078496;28;20048;-70
2022/04/08 07:51:41;;;;;;;9.05;1.98;;;7.90;99.90;;;;;;5081034;28;20048;-71
2022/04/08 07:54:08;;;;;;;11.55;1.45;;;7.80;99.90;;;;;;5063468;28;20101;-70
2022/04/08 07:56:35;;;;;;;10.50;1.67;;;7.70;99.90;;;;;;5075957;28;20412;-71
2022/04/08 07:59:02;;;;;;;7.90;1.48;;;7.80;99.90;;;;;;5078268;28;20036;-71
2022/04/08 08:01:28;;;;;;;7.07;1.40;;;7.70;99.90;;;;;;5079350;28;20393;-70
2022/04/08 08:03:54;;;;;;;14.05;1.98;;;8.00;99.90;;;;;;5061780;28;20048;-70
2022/04/08 08:06:20;;;;;;;8.65;1.60;;;8.10;99.90;;;;;;5081525;28;20051;-71
2022/04/08 08:08:46;;;;;;;7.22;1.10;;;8.20;99.90;;;;;;5074859;28;20032;-71
2022/04/08 08:11:13;;;;;;;8.70;1.67;;;8.40;99.90;;;;;;5079211;28;20040;-70
2022/04/08 08:13:39;;;;;;;7.07;1.38;;;8.70;99.90;;;;;;5080330;28;20173;-71
2022/04/08 08:16:07;;;;;;;6.70;1.13;;;9.20;99.90;;;;;;5059880;28;20037;-71
2022/04/08 08:18:33;;;;;;;12.38;1.40;;;9.60;99.90;;;;;;5042093;28;20032;-71
2022/04/08 08:20:59;;;;;;;7.45;1.20;;;9.90;99.90;;;;;;5051776;28;20280;-71
2022/04/08 08:23:25;;;;;;;9.85;1.77;;;10.10;99.90;;;;;;5058994;28;20041;-71
2022/04/08 08:25:50;;;;;;;10.48;1.85;;;10.40;99.90;;;;;;5046214;28;20066;-71
2022/04/08 08:28:16;;;;;;;6.82;1.30;;;10.60;99.90;;;;;;5031360;28;20036;-71
2022/04/08 08:30:44;;;;;;;7.25;1.23;;;10.60;99.90;;;;;;5066321;28;20044;-71
2022/04/08 08:33:12;;;;;;;7.47;1.63;;;10.50;99.90;;;;;;5063115;28;20036;-71
2022/04/08 08:35:38;;;;;;;13.77;1.38;;;10.30;99.90;;;;;;5049081;28;20509;-71
2022/04/08 08:38:04;;;;;;;6.93;1.50;;;10.20;99.90;;;;;;5049895;28;20048;-71
2022/04/08 08:40:32;;;;;;;5.38;1.20;;;10.30;99.90;;;;;;5065295;28;20056;-69
2022/04/08 08:42:59;;;;;;;8.73;0.98;;;10.50;99.90;;;;;;5068832;28;20449;-70
2022/04/08 08:45:29;;;;;;;7.35;1.23;;;10.70;99.90;;;;;;5070345;28;20048;-71
2022/04/08 08:47:59;;;;;;;10.32;1.52;;;10.70;99.90;;;;;;5079196;28;20051;-71
2022/04/08 08:50:25;;;;;;;6.97;1.20;;;10.50;99.90;;;;;;5051459;28;20062;-71
2022/04/08 08:52:51;;;;;;;4.70;0.90;;;10.30;99.90;;;;;;5052567;28;20044;-71
2022/04/08 08:55:17;;;;;;;9.45;1.90;;;10.10;99.90;;;;;;5051859;28;20106;-71
2022/04/08 08:57:45;;;;;;;9.38;1.35;;;10.00;99.90;;;;;;5067755;28;20089;-72
2022/04/08 09:00:13;;;;;;;11.88;1.67;;;9.70;99.90;;;;;;5068216;28;20040;-71
2022/04/08 09:02:43;;;;;;;5.72;1.00;;;9.50;99.90;;;;;;5069107;28;20131;-71
2022/04/08 09:05:37;;;;;;;8.35;1.08;;;9.60;99.90;;;;;;5068271;28;20544;-71
2022/04/08 09:08:05;;;;;;;10.55;0.90;;;9.80;99.90;;;;;;5066420;28;20087;-71
2022/04/08 09:10:43;;;;;;;7.43;1.52;;;10.10;99.90;;;;;;5068829;28;20616;-71
2022/04/08 09:13:19;;;;;;;7.05;1.10;;;10.50;99.90;;;;;;5051846;28;20044;-72
2022/04/08 09:15:58;;;;;;;4.07;1.00;;;11.10;99.90;;;;;;5067709;28;20048;-72
2022/04/08 09:18:30;;;;;;;5.05;0.90;;;11.20;99.90;;;;;;5066233;28;20047;-72
2022/04/08 09:20:57;;;;;;;6.80;1.27;;;10.90;99.90;;;;;;5068110;28;20327;-71
2022/04/08 09:23:23;;;;;;;5.70;1.20;;;10.40;99.90;;;;;;5068944;28;20102;-72
2022/04/08 09:25:57;;;;;;;6.25;1.30;;;9.70;99.90;;;;;;5067251;28;20620;-71
2022/04/08 09:28:23;;;;;;;5.43;1.02;;;8.90;99.90;;;;;;5064758;28;20045;-71
2022/04/08 09:30:55;;;;;;;6.03;1.23;;;8.30;99.90;;;;;;5068067;28;20078;-71
2022/04/08 09:33:23;;;;;;;4.38;0.95;;;7.90;99.90;;;;;;5067018;28;20048;-71
2022/04/08 09:35:52;;;;;;;10.15;1.85;;;7.70;99.90;;;;;;5066446;28;20508;-71
2022/04/08 09:38:26;;;;;;;8.20;2.78;;;7.90;99.90;;;;;;5067311;28;20044;-71
2022/04/08 09:41:01;;;;;;;8.52;1.75;;;7.50;99.90;;;;;;5050296;28;20418;-71
2022/04/08 09:43:34;;;;;;;7.35;1.52;;;7.60;99.90;;;;;;5067532;28;20063;-71
2022/04/08 09:46:17;;;;;;;6.88;1.10;;;7.50;99.90;;;;;;5060833;28;20048;-71
2022/04/08 09:48:44;;;;;;;9.02;1.60;;;7.60;99.90;;;;;;5065851;28;20378;-70
2022/04/08 09:51:20;;;;;;;6.82;1.20;;;8.00;99.90;;;;;;5060469;28;20153;-71
2022/04/08 09:54:04;;;;;;;5.40;1.33;;;8.40;99.90;;;;;;5059633;28;20527;-71
2022/04/08 09:56:30;;;;;;;9.70;1.50;;;8.70;99.90;;;;;;5061783;28;20451;-71
2022/04/08 09:59:12;;;;;;;10.13;1.25;;;9.00;99.90;;;;;;5063469;28;20122;-72
2022/04/08 10:01:38;;;;;;;7.80;1.13;;;9.20;99.90;;;;;;5063137;28;20044;-71
2022/04/08 10:04:05;;;;;;;9.23;1.10;;;9.30;99.90;;;;;;5062514;28;20055;-71
2022/04/08 10:06:31;;;;;;;6.65;1.20;;;9.30;99.90;;;;;;5061906;28;20052;-71
2022/04/08 10:08:58;;;;;;;7.75;1.10;;;9.00;99.90;;;;;;5046065;28;20112;-71
2022/04/08 10:11:34;;;;;;;2.53;0.85;;;8.90;99.90;;;;;;5063499;28;20032;-71
2022/04/08 10:14:18;;;;;;;5.97;1.10;;;8.70;99.90;;;;;;5062851;28;20041;-71
2022/04/08 10:16:45;;;;;;;9.88;1.08;;;8.90;99.90;;;;;;5061365;28;20047;-71
2022/04/08 10:19:13;;;;;;;9.73;1.10;;;8.60;99.90;;;;;;5045969;28;20036;-71
2022/04/08 10:21:40;;;;;;;2.58;1.00;;;8.40;99.90;;;;;;5062007;28;20044;-71
2022/04/08 10:24:25;;;;;;;9.88;1.20;;;8.40;99.90;;;;;;5059356;28;20047;-71
2022/04/08 10:26:58;;;;;;;8.85;1.40;;;8.60;99.90;;;;;;5063622;28;20387;-71
2022/04/08 10:29:24;;;;;;;4.40;0.98;;;9.00;99.90;;;;;;5062569;28;20044;-71
2022/04/08 10:31:58;;;;;;;5.75;1.63;;;9.30;99.90;;;;;;5065201;28;20040;-71
2022/04/08 10:34:24;;;;;;;6.88;1.52;;;9.60;99.90;;;;;;5066675;28;20492;-71
2022/04/08 10:36:50;;;;;;;7.10;1.48;;;9.70;99.90;;;;;;5064218;28;20443;-72
2022/04/08 10:39:22;;;;;;;8.07;1.38;;;9.70;99.90;;;;;;5064537;28;20032;-71
2022/04/08 10:41:54;;;;;;;5.68;1.15;;;9.40;99.90;;;;;;5060968;28;20048;-70
2022/04/08 10:44:41;;;;;;;9.90;1.10;;;9.10;99.90;;;;;;5062542;28;20374;-70
2022/04/08 10:47:24;;;;;;;7.80;1.20;;;8.80;99.90;;;;;;5074523;28;20036;-71
2022/04/08 10:49:54;;;;;;;5.65;1.00;;;8.50;99.90;;;;;;5059954;28;20060;-71
2022/04/08 10:52:27;;;;;;;5.40;1.20;;;8.30;99.90;;;;;;5054988;28;20550;-71
2022/04/08 10:55:11;;;;;;;11.20;1.35;;;8.20;99.90;;;;;;5057746;28;20386;-70
2022/04/08 10:57:39;;;;;;;8.63;1.38;;;8.20;99.90;;;;;;5056256;28;20052;-71
2022/04/08 11:00:10;;;;;;;9.60;1.33;;;8.10;99.90;;;;;;5060050;28;20405;-71
2022/04/08 11:02:38;;;;;;;3.67;0.85;;;8.30;99.90;;;;;;5055357;28;20505;-71
2022/04/08 11:05:12;;;;;;;4.75;0.90;;;8.50;99.90;;;;;;5059295;28;20123;-71
2022/04/08 11:07:45;;;;;;;5.68;1.02;;;8.80;99.90;;;;;;5041267;28;20053;-71
2022/04/08 11:10:16;;;;;;;6.18;1.30;;;9.00;99.90;;;;;;5053350;28;20143;-70
2022/04/08 11:12:46;;;;;;;5.60;1.00;;;9.10;99.90;;;;;;5042708;28;20052;-72
2022/04/08 11:15:20;;;;;;;4.90;1.00;;;9.00;99.90;;;;;;5058131;28;20037;-71
2022/04/08 11:17:50;;;;;;;7.90;0.90;;;9.00;99.90;;;;;;5061269;28;20310;-71
2022/04/08 11:20:20;;;;;;;5.07;1.10;;;8.90;99.90;;;;;;5057146;28;20596;-71
2022/04/08 11:22:49;;;;;;;5.28;0.90;;;8.80;99.90;;;;;;5068063;28;20088;-70
2022/04/08 11:25:26;;;;;;;8.38;1.00;;;8.80;99.90;;;;;;5072500;28;20067;-71
2022/04/08 11:28:09;;;;;;;5.80;1.27;;;8.90;99.90;;;;;;5072818;28;20137;-71
2022/04/08 11:30:39;;;;;;;6.45;0.90;;;9.10;99.90;;;;;;5076189;28;20059;-70
2022/04/08 11:33:19;;;;;;;7.75;1.25;;;9.40;99.90;;;;;;5076410;28;20044;-70
2022/04/08 11:35:46;;;;;;;7.68;1.45;;;9.80;99.90;;;;;;5073674;28;20044;-71
2022/04/08 11:38:22;;;;;;;5.38;1.00;;;10.00;99.90;;;;;;5075831;28;20052;-70
2022/04/08 11:40:49;;;;;;;5.32;1.30;;;10.00;99.90;;;;;;5058440;28;20451;-70
2022/04/08 11:43:16;;;;;;;4.80;1.08;;;10.00;99.90;;;;;;5061221;28;20443;-71
2022/04/08 11:45:43;;;;;;;5.63;1.45;;;10.00;99.90;;;;;;5074743;28;20052;-71
2022/04/08 11:48:13;;;;;;;4.47;1.00;;;10.10;99.90;;;;;;5075207;28;20048;-70
2022/04/08 11:50:40;;;;;;;8.77;1.40;;;10.40;99.90;;;;;;5070575;28;20080;-70
2022/04/08 11:53:14;;;;;;;6.45;1.17;;;10.70;99.90;;;;;;5067455;28;20040;-70
2022/04/08 11:55:40;;;;;;;4.60;1.30;;;11.10;99.90;;;;;;5071559;28;20069;-71
2022/04/08 11:58:18;;;;;;;10.50;1.00;;;11.30;99.90;;;;;;5076301;28;20063;-71
2022/04/08 12:00:46;;;;;;;5.13;0.80;;;11.30;99.90;;;;;;5075563;28;20055;-71
2022/04/08 12:03:20;;;;;;;6.65;0.95;;;11.40;99.90;;;;;;5072364;28;20049;-71
2022/04/08 12:05:48;;;;;;;4.82;0.82;;;11.50;99.90;;;;;;5056100;28;20036;-70
2022/04/08 12:08:14;;;;;;;8.23;1.00;;;11.50;99.90;;;;;;5075134;28;20032;-70
2022/04/08 12:10:40;;;;;;;5.70;0.85;;;11.50;99.90;;;;;;5078988;28;20032;-70
2022/04/08 12:13:14;;;;;;;7.63;1.10;;;11.50;99.90;;;;;;5063892;28;20359;-70
2022/04/08 12:15:44;;;;;;;6.30;0.80;;;11.30;99.90;;;;;;5072774;28;20144;-70
2022/04/08 12:18:11;;;;;;;5.47;0.83;;;11.10;99.90;;;;;;5060548;28;20275;-70
2022/04/08 12:20:40;;;;;;;4.97;0.80;;;10.90;99.90;;;;;;5073195;28;20078;-71
2022/04/08 12:23:09;;;;;;;6.45;1.10;;;10.80;99.90;;;;;;5058789;28;20086;-71
2022/04/08 12:25:36;;;;;;;7.50;1.30;;;10.60;99.90;;;;;;5080642;28;20044;-71
2022/04/08 12:28:09;;;;;;;7.22;1.40;;;10.30;99.90;;;;;;5079864;28;20075;-71
2022/04/08 12:30:34;;;;;;;7.20;1.33;;;10.10;99.90;;;;;;5061887;28;20138;-71
2022/04/08 12:33:00;;;;;;;11.93;1.90;;;9.80;99.90;;;;;;5067787;28;20048;-70
2022/04/08 12:35:27;;;;;;;16.15;1.95;;;9.90;99.90;;;;;;5076978;28;20036;-70
2022/04/08 12:37:53;;;;;;;8.60;1.10;;;10.00;99.90;;;;;;5058328;28;20564;-72
2022/04/08 12:40:19;;;;;;;8.32;1.10;;;10.20;99.90;;;;;;5063631;28;20256;-70
2022/04/08 12:42:45;;;;;;;10.75;1.45;;;10.20;99.90;;;;;;5069819;28;20079;-71
2022/04/08 12:45:11;;;;;;;6.50;0.88;;;10.30;99.90;;;;;;5052079;28;20066;-71
2022/04/08 12:47:36;;;;;;;7.40;1.50;;;10.30;99.90;;;;;;5065610;28;20103;-71
2022/04/08 12:50:04;;;;;;;8.93;1.00;;;10.30;99.90;;;;;;5049634;28;20048;-71
2022/04/08 12:52:30;;;;;;;6.50;1.25;;;10.20;99.90;;;;;;5070394;28;20354;-70
2022/04/08 12:54:55;;;;;;;5.72;1.13;;;10.10;99.90;;;;;;5068241;28;20070;-71